Time;durP1;ratioP1;P1;durP2;ratioP2;P2;SDS_P1;SDS_P2;PMS_P1;PMS_P2;Temp;Humidity;BMP_temperature;BMP_pressure;BME280_temperature;BME280_humidity;BME280_pressure;Samples;Min_cycle;Max_cycle;Signal;HPM_P1;HPM_P2
2022/08/12 00:44:21;;;;;;;2.65;1.25;;;;;;;29.39;29.77;96628.56;5092268;28;20393;-27
2022/08/12 00:46:51;;;;;;;2.40;1.10;;;;;;;29.34;29.76;96627.38;5094596;28;20032;-27
2022/08/12 00:49:22;;;;;;;2.45;1.50;;;;;;;29.35;29.90;96628.13;5094269;28;20020;-27
2022/08/12 00:52:05;;;;;;;2.55;1.40;;;;;;;29.34;29.90;96621.78;5094524;28;20027;-27
2022/08/12 00:54:38;;;;;;;1.40;1.30;;;;;;;29.37;29.75;96626.28;5094227;28;20099;-27
2022/08/12 00:57:09;;;;;;;1.63;1.10;;;;;;;29.29;29.99;96623.44;5094170;28;20024;-27
2022/08/12 00:59:42;;;;;;;1.27;1.17;;;;;;;29.36;29.93;96624.78;5094295;28;20020;-29
2022/08/12 01:02:12;;;;;;;1.35;1.25;;;;;;;29.34;29.96;96621.78;5094151;28;20224;-27
2022/08/12 01:12:54;;;;;;;4.38;1.50;;;;;;;29.31;29.96;96617.28;5093776;28;20027;-27
2022/08/12 01:15:20;;;;;;;1.73;1.48;;;;;;;29.32;29.88;96618.78;5093875;28;20465;-28
2022/08/12 01:17:46;;;;;;;2.47;1.60;;;;;;;29.34;29.92;96616.19;5093808;28;20055;-27
2022/08/12 01:20:19;;;;;;;3.42;1.23;;;;;;;29.42;30.05;96614.25;5093725;28;20044;-27
2022/08/12 01:23:19;;;;;;;2.05;1.30;;;;;;;29.33;29.77;96614.69;5093636;28;20023;-27
2022/08/12 01:25:48;;;;;;;1.73;1.50;;;;;;;29.35;29.44;96611.38;5093788;28;20020;-27
2022/08/12 01:28:18;;;;;;;1.77;1.33;;;;;;;29.33;29.93;96608.38;5093591;28;20046;-28
2022/08/12 01:30:44;;;;;;;1.90;1.20;;;;;;;29.32;29.79;96602.03;5093662;28;20034;-27
2022/08/12 01:33:15;;;;;;;1.40;1.10;;;;;;;29.34;29.80;96610.63;5093583;28;20022;-27
2022/08/12 01:35:48;;;;;;;1.50;1.40;;;;;;;29.34;29.99;96607.06;5093634;28;20085;-29
2022/08/12 01:38:19;;;;;;;1.73;1.30;;;;;;;29.31;29.88;96603.31;5093441;28;20046;-27
2022/08/12 01:40:46;;;;;;;1.52;1.20;;;;;;;29.30;29.77;96596.25;5093589;28;20050;-27
2022/08/12 01:43:16;;;;;;;1.73;1.13;;;;;;;29.27;29.97;96595.31;5093405;28;20031;-28
2022/08/12 01:45:50;;;;;;;2.10;1.38;;;;;;;29.26;30.11;96595.84;5093570;28;20032;-29
2022/08/12 01:48:44;;;;;;;1.90;1.30;;;;;;;29.30;29.89;96596.25;5093480;28;20032;-28
2022/08/12 01:51:18;;;;;;;1.33;1.23;;;;;;;29.31;30.08;96586.56;5093121;28;20114;-27
2022/08/12 01:54:14;;;;;;;1.60;1.20;;;;;;;29.27;30.16;96592.53;5093619;28;20024;-28
2022/08/12 01:56:47;;;;;;;1.73;1.40;;;;;;;29.35;29.73;96589.03;5092665;28;20167;-27
2022/08/12 02:02:08;;;;;;;2.70;1.40;;;;;;;29.29;29.92;96587.13;5093433;28;20081;-26
2022/08/12 02:11:21;;;;;;;2.90;1.40;;;;;;;29.33;29.71;96583.97;5071028;28;20039;-27
2022/08/12 02:14:16;;;;;;;1.40;1.02;;;;;;;29.26;29.73;96582.66;5071095;28;20032;-27
2022/08/12 02:16:48;;;;;;;1.40;1.30;;;;;;;29.21;30.06;96582.78;5049421;28;20040;-27
2022/08/12 02:19:40;;;;;;;1.90;1.30;;;;;;;29.32;29.53;96590.84;5070708;28;20086;-27
2022/08/12 02:22:18;;;;;;;3.42;1.27;;;;;;;29.24;29.73;96585.22;5070882;28;20056;-27
2022/08/12 02:24:45;;;;;;;1.92;1.33;;;;;;;29.36;29.43;96580.09;5071464;28;20060;-27
2022/08/12 02:27:15;;;;;;;1.65;1.30;;;;;;;29.30;29.65;96571.13;5074608;28;20048;-27
2022/08/12 02:29:48;;;;;;;1.95;1.42;;;;;;;29.35;29.42;96572.25;5074587;28;20494;-27
2022/08/12 02:32:14;;;;;;;1.23;1.10;;;;;;;29.32;29.35;96562.91;5074535;28;20089;-27
2022/08/12 02:34:43;;;;;;;1.60;1.48;;;;;;;29.35;29.54;96561.84;5074242;28;20438;-27
2022/08/12 02:37:14;;;;;;;1.50;1.20;;;;;;;29.38;29.01;96571.19;5074883;28;20033;-27
2022/08/12 02:39:48;;;;;;;2.78;1.40;;;;;;;29.40;29.03;96558.19;5057651;28;20044;-26
2022/08/12 02:42:17;;;;;;;1.23;1.10;;;;;;;29.42;29.65;96568.81;5074532;28;20036;-26
2022/08/12 02:44:48;;;;;;;2.65;1.30;;;;;;;29.34;29.21;96571.50;5057906;28;20032;-27
2022/08/12 02:47:16;;;;;;;1.33;1.20;;;;;;;29.46;28.83;96569.94;5096232;28;20039;-27
2022/08/12 02:49:50;;;;;;;2.67;1.40;;;;;;;29.45;29.01;96548.13;5096697;28;20031;-27
2022/08/12 02:52:18;;;;;;;2.28;1.30;;;;;;;29.31;29.13;96556.59;5096591;28;20016;-27
2022/08/12 02:54:49;;;;;;;1.63;1.25;;;;;;;29.42;28.86;96560.44;5096503;28;20470;-28
2022/08/12 02:57:15;;;;;;;1.67;1.42;;;;;;;29.34;29.19;96565.91;5096600;28;20034;-27
2022/08/12 02:59:42;;;;;;;2.25;1.35;;;;;;;29.39;28.71;96565.06;5096314;28;20020;-29
2022/08/12 03:02:11;;;;;;;1.48;1.35;;;;;;;29.38;29.50;96554.44;5096309;28;20085;-27
2022/08/12 03:04:45;;;;;;;2.35;1.20;;;;;;;29.40;29.18;96554.63;5096505;28;20483;-27
2022/08/12 03:07:16;;;;;;;2.25;1.48;;;;;;;29.25;29.46;96553.22;5096007;28;20134;-29
2022/08/12 03:09:50;;;;;;;1.35;1.13;;;;;;;29.35;29.77;96549.91;5096269;28;20016;-27
2022/08/12 03:12:17;;;;;;;1.67;1.30;;;;;;;29.35;28.81;96556.25;5096245;28;20077;-27
2022/08/12 03:14:43;;;;;;;1.27;1.17;;;;;;;29.34;29.64;96560.34;5095950;28;20031;-27
2022/08/12 03:17:24;;;;;;;1.98;1.30;;;;;;;29.31;29.38;96561.44;5096040;28;20454;-27
2022/08/12 03:19:53;;;;;;;1.10;1.00;;;;;;;29.29;28.83;96562.00;5096086;28;20028;-27
2022/08/12 03:22:22;;;;;;;1.42;1.33;;;;;;;29.35;28.62;96542.28;5095738;28;20488;-27
2022/08/12 03:24:48;;;;;;;1.70;1.20;;;;;;;29.36;29.05;96540.97;5095781;28;20492;-27
2022/08/12 03:27:15;;;;;;;1.98;1.38;;;;;;;29.38;28.75;96541.22;5095795;28;20082;-27
2022/08/12 03:29:45;;;;;;;2.90;1.45;;;;;;;29.41;29.05;96542.91;5095848;28;20028;-26
2022/08/12 03:32:12;;;;;;;1.60;1.25;;;;;;;29.39;28.75;96545.50;5095979;28;20047;-27
2022/08/12 03:34:40;;;;;;;1.88;1.23;;;;;;;29.40;28.88;96544.22;5095683;28;20024;-27
2022/08/12 03:37:06;;;;;;;1.90;1.17;;;;;;;29.35;29.24;96538.72;5095313;28;20020;-27
2022/08/12 03:42:24;;;;;;;2.17;1.40;;;;;;;29.37;28.79;96536.13;5096013;28;20036;-27
2022/08/12 04:01:55;;;;;;;3.10;1.50;;;;;;;29.28;29.22;96537.41;5095457;28;20031;-26
2022/08/12 04:04:24;;;;;;;1.90;1.45;;;;;;;29.24;29.48;96534.22;5095062;28;20432;-28
2022/08/12 04:06:51;;;;;;;1.77;1.40;;;;;;;29.29;29.46;96542.44;5094800;28;20047;-27
2022/08/12 04:09:20;;;;;;;1.63;1.33;;;;;;;29.30;29.24;96538.31;5094984;28;20027;-27
2022/08/12 04:14:31;;;;;;;1.23;1.10;;;;;;;29.32;28.97;96537.78;5094816;28;20499;-27
2022/08/12 04:16:56;;;;;;;2.15;1.50;;;;;;;29.33;29.22;96525.31;5094795;28;20036;-27
2022/08/12 04:19:23;;;;;;;3.67;1.40;;;;;;;29.27;29.13;96531.06;5094784;28;20032;-27
2022/08/12 04:21:49;;;;;;;2.92;1.33;;;;;;;29.32;29.31;96532.19;5094885;28;20089;-28
2022/08/12 04:24:17;;;;;;;2.53;1.45;;;;;;;29.37;29.36;96531.31;5094910;28;20446;-27
2022/08/12 04:26:42;;;;;;;1.77;1.33;;;;;;;29.31;28.72;96539.06;5094817;28;20031;-28
2022/08/12 04:29:09;;;;;;;1.23;1.02;;;;;;;29.35;29.30;96525.50;5094709;28;20381;-27
2022/08/12 04:31:42;;;;;;;1.65;1.20;;;;;;;29.30;29.11;96532.03;5094587;28;20118;-27
2022/08/12 04:34:10;;;;;;;1.35;1.10;;;;;;;29.31;29.36;96541.88;5095130;28;20031;-27
2022/08/12 04:36:38;;;;;;;1.30;1.20;;;;;;;29.32;29.30;96540.56;5094719;28;20058;-27
2022/08/12 04:39:06;;;;;;;1.58;1.48;;;;;;;29.30;29.29;96537.59;5094368;28;20055;-28
2022/08/12 04:41:32;;;;;;;1.80;1.30;;;;;;;29.26;29.20;96535.16;5094346;28;20032;-26
2022/08/12 04:43:58;;;;;;;4.05;1.52;;;;;;;29.24;29.16;96543.34;5093112;28;20111;-27
2022/08/12 04:46:24;;;;;;;1.40;1.30;;;;;;;29.30;29.36;96535.53;5094517;28;20048;-27
2022/08/12 04:48:51;;;;;;;1.45;1.30;;;;;;;29.28;29.57;96543.00;5093556;28;20060;-27
2022/08/12 04:51:18;;;;;;;2.40;1.70;;;;;;;29.24;29.25;96546.13;5094300;28;20061;-27
2022/08/12 04:53:44;;;;;;;1.98;1.30;;;;;;;29.23;29.77;96543.88;5094257;28;20038;-27
2022/08/12 04:56:12;;;;;;;2.95;1.40;;;;;;;29.27;29.61;96536.66;5094108;28;20525;-27
2022/08/12 04:58:39;;;;;;;2.00;1.50;;;;;;;29.30;29.66;96538.31;5094253;28;20123;-27
2022/08/12 05:01:05;;;;;;;1.77;1.23;;;;;;;29.27;29.37;96538.69;5092787;28;20020;-27
2022/08/12 05:03:31;;;;;;;4.28;1.70;;;;;;;29.26;29.52;96526.03;5093860;28;20041;-27
2022/08/12 05:05:57;;;;;;;2.05;1.55;;;;;;;29.29;29.68;96530.53;5093727;28;20151;-26
2022/08/12 05:08:24;;;;;;;3.22;1.60;;;;;;;29.28;29.54;96526.22;5093883;28;20393;-26
2022/08/12 05:10:50;;;;;;;1.92;1.40;;;;;;;29.26;29.55;96521.19;5093880;28;20136;-27
2022/08/12 05:13:19;;;;;;;3.15;1.33;;;;;;;29.28;29.74;96520.66;5094129;28;20024;-26
2022/08/12 05:15:45;;;;;;;2.72;1.50;;;;;;;29.23;29.59;96519.50;5093951;28;20035;-28
2022/08/12 05:18:11;;;;;;;1.58;1.30;;;;;;;29.27;29.66;96528.28;5093804;28;20401;-29
2022/08/12 05:20:37;;;;;;;2.67;1.50;;;;;;;29.27;29.65;96528.28;5093925;28;20466;-28
2022/08/12 05:23:15;;;;;;;3.17;1.42;;;;;;;29.27;29.71;96533.13;5093566;28;20127;-28
2022/08/12 05:25:42;;;;;;;3.72;1.40;;;;;;;29.26;30.23;96537.19;5093716;28;20024;-27
2022/08/12 05:28:08;;;;;;;1.98;1.60;;;;;;;29.23;30.04;96541.09;5093587;28;20024;-26
2022/08/12 05:30:34;;;;;;;1.70;1.27;;;;;;;29.20;29.90;96536.59;5093605;28;20081;-27
2022/08/12 05:33:04;;;;;;;1.80;1.30;;;;;;;29.17;29.98;96534.91;5093521;28;20462;-27
2022/08/12 05:35:30;;;;;;;1.95;1.70;;;;;;;29.15;29.77;96532.66;5093575;28;20024;-28
2022/08/12 05:40:40;;;;;;;2.05;1.40;;;;;;;29.24;29.98;96534.22;5093583;28;20543;-26
2022/08/12 05:43:07;;;;;;;3.20;1.67;;;;;;;29.21;30.03;96540.88;5092187;28;20036;-27
2022/08/12 05:45:33;;;;;;;2.38;1.30;;;;;;;29.22;29.96;96528.41;5093599;28;20111;-28
2022/08/12 05:47:58;;;;;;;2.63;1.52;;;;;;;29.19;30.19;96532.31;5093334;28;20103;-27
2022/08/12 05:50:24;;;;;;;2.92;1.50;;;;;;;29.20;30.12;96533.81;5093491;28;20028;-27
2022/08/12 05:52:50;;;;;;;2.63;1.30;;;;;;;29.18;30.29;96525.97;5093345;28;20012;-27
2022/08/12 05:55:16;;;;;;;2.40;1.70;;;;;;;29.14;30.34;96528.38;5093311;28;20050;-27
2022/08/12 05:57:47;;;;;;;1.83;1.58;;;;;;;29.15;30.27;96529.13;5093360;28;20027;-27
2022/08/12 06:00:15;;;;;;;2.10;1.40;;;;;;;29.18;30.22;96534.34;5097029;28;20027;-29
2022/08/12 06:02:41;;;;;;;2.78;1.67;;;;;;;29.18;30.00;96522.41;5097278;28;20035;-27
2022/08/12 06:05:09;;;;;;;2.13;1.48;;;;;;;29.21;30.44;96524.13;5097535;28;21342;-27
2022/08/12 06:07:40;;;;;;;1.88;1.45;;;;;;;29.13;30.45;96528.94;5097397;28;20027;-27
2022/08/12 06:10:06;;;;;;;1.85;1.50;;;;;;;29.15;30.48;96535.47;5097467;28;20026;-26
2022/08/12 06:12:32;;;;;;;1.85;1.50;;;;;;;29.19;30.42;96532.31;5096654;28;20095;-28
2022/08/12 06:14:57;;;;;;;1.50;1.23;;;;;;;29.16;30.55;96531.38;5120877;27;20024;-27
2022/08/12 06:17:23;;;;;;;1.55;1.30;;;;;;;29.16;30.69;96539.00;5136150;27;20388;-27
2022/08/12 06:19:48;;;;;;;2.08;1.50;;;;;;;29.22;30.77;96534.00;5125346;27;20449;-26
2022/08/12 06:22:14;;;;;;;2.88;1.65;;;;;;;29.17;30.82;96535.66;5113777;28;20031;-27
2022/08/12 06:24:40;;;;;;;1.58;1.33;;;;;;;29.18;30.70;96531.56;5115369;28;20028;-27
2022/08/12 06:27:05;;;;;;;2.13;1.48;;;;;;;29.19;30.91;96543.47;5115613;28;20036;-27
2022/08/12 06:29:31;;;;;;;1.65;1.30;;;;;;;29.19;30.84;96544.22;5115474;28;20024;-27
2022/08/12 06:31:57;;;;;;;1.92;1.63;;;;;;;29.15;30.92;96543.84;5124238;27;20023;-27
2022/08/12 06:34:22;;;;;;;1.60;1.42;;;;;;;29.18;31.00;96541.97;5135715;27;20031;-27
2022/08/12 06:37:03;;;;;;;2.40;1.50;;;;;;;29.18;30.95;96544.75;5135385;27;20027;-27
2022/08/12 06:39:29;;;;;;;1.52;1.38;;;;;;;29.14;31.25;96542.34;5135024;27;20023;-26
2022/08/12 06:44:38;;;;;;;2.35;1.80;;;;;;;29.04;31.46;96549.72;5135064;27;20042;-26
2022/08/12 06:47:04;;;;;;;2.25;1.60;;;;;;;29.08;31.58;96549.34;5135137;27;20023;-27
2022/08/12 06:49:34;;;;;;;3.03;1.45;;;;;;;29.15;31.58;96543.09;5134348;27;20107;-28
2022/08/12 06:51:59;;;;;;;1.70;1.60;;;;;;;29.18;31.27;96553.16;5134714;27;20392;-27
2022/08/12 06:54:25;;;;;;;1.98;1.50;;;;;;;29.15;31.36;96549.44;5134730;27;20023;-26
2022/08/12 06:56:51;;;;;;;2.70;1.60;;;;;;;29.20;31.40;96544.97;5134858;27;20023;-27
2022/08/12 06:59:20;;;;;;;2.17;1.70;;;;;;;29.15;31.40;96552.22;5135098;27;20023;-26
2022/08/12 07:01:46;;;;;;;1.90;1.70;;;;;;;29.14;31.48;96550.72;5135199;27;20038;-28
2022/08/12 07:04:37;;;;;;;1.73;1.25;;;;;;;29.15;31.47;96543.84;5135284;27;20114;-29
2022/08/12 07:07:15;;;;;;;2.42;1.70;;;;;;;29.12;31.61;96530.22;5134212;27;20058;-27
2022/08/12 07:10:05;;;;;;;2.45;1.80;;;;;;;29.16;31.57;96539.75;5112701;27;20063;-27
2022/08/12 07:12:40;;;;;;;2.95;1.70;;;;;;;28.94;32.07;96535.50;5105845;28;20034;-27
2022/08/12 07:15:23;;;;;;;2.92;1.70;;;;;;;29.02;32.02;96538.34;5092749;28;20032;-27
2022/08/12 07:20:41;;;;;;;1.90;1.70;;;;;;;29.08;32.06;96540.97;5092715;28;19969;-27
2022/08/12 07:23:06;;;;;;;2.38;1.70;;;;;;;29.10;31.87;96547.53;5093931;28;20032;-27
2022/08/12 07:25:33;;;;;;;2.00;1.80;;;;;;;29.13;32.10;96546.44;5105811;28;20092;-29
2022/08/12 07:28:05;;;;;;;2.40;1.58;;;;;;;29.10;32.26;96553.09;5093813;28;20107;-27
2022/08/12 07:30:33;;;;;;;8.02;2.08;;;;;;;27.66;35.82;96554.44;5095844;28;20020;-28
2022/08/12 07:33:03;;;;;;;2.55;1.73;;;;;;;28.13;35.45;96560.75;5093221;28;20055;-28
2022/08/12 07:35:29;;;;;;;2.72;2.00;;;;;;;28.46;34.51;96569.66;5092316;28;20031;-28
2022/08/12 07:37:56;;;;;;;3.47;2.00;;;;;;;28.75;33.60;96573.28;5093657;28;20051;-29
2022/08/12 07:40:23;;;;;;;2.70;1.75;;;;;;;28.89;33.49;96564.31;5093768;28;20034;-28
2022/08/12 07:42:49;;;;;;;4.80;2.40;;;;;;;28.98;33.24;96565.09;5093641;28;20649;-29
2022/08/12 07:45:14;;;;;;;5.68;2.33;;;;;;;29.00;33.49;96559.72;5093659;28;20024;-29
2022/08/12 07:47:44;;;;;;;5.05;2.08;;;;;;;28.98;33.34;96562.31;5093383;28;20448;-28
2022/08/12 07:50:15;;;;;;;2.75;1.80;;;;;;;28.99;33.17;96563.81;5093233;28;20024;-29
2022/08/12 07:52:45;;;;;;;2.93;2.20;;;;;;;28.97;33.41;96567.16;5093358;28;20531;-29
2022/08/12 07:55:13;;;;;;;2.38;2.03;;;;;;;29.00;33.23;96571.66;5093302;28;20024;-29
2022/08/12 07:58:08;;;;;;;3.13;2.03;;;;;;;28.95;33.33;96578.88;5093301;28;20039;-28
2022/08/12 08:00:36;;;;;;;3.85;1.73;;;;;;;28.89;33.65;96581.06;5092413;28;20036;-29
2022/08/12 08:03:02;;;;;;;4.35;1.95;;;;;;;28.95;33.61;96587.25;5093242;28;20034;-28
2022/08/12 08:05:45;;;;;;;2.58;1.90;;;;;;;28.97;33.53;96583.16;5093040;28;20048;-28
2022/08/12 08:08:16;;;;;;;5.22;2.08;;;;;;;28.99;33.56;96586.16;5093076;28;20034;-29
2022/08/12 08:10:42;;;;;;;3.15;2.00;;;;;;;28.84;34.04;96586.78;5092954;28;20032;-29
2022/08/12 08:13:10;;;;;;;2.65;2.40;;;;;;;28.94;33.69;96582.94;5092920;28;20477;-29
2022/08/12 08:15:38;;;;;;;2.67;2.00;;;;;;;28.95;33.67;96598.41;5092960;28;20444;-29
2022/08/12 08:18:08;;;;;;;3.15;1.98;;;;;;;28.97;33.71;96595.06;5092974;28;20024;-30
2022/08/12 08:20:39;;;;;;;2.20;2.00;;;;;;;28.98;33.63;96607.00;5091125;28;20039;-29
2022/08/12 08:23:17;;;;;;;2.30;2.10;;;;;;;28.88;34.17;96607.47;5091521;28;20020;-29
2022/08/12 08:25:45;;;;;;;4.50;2.05;;;;;;;28.60;35.12;96602.53;5092563;28;20032;-29
2022/08/12 08:28:13;;;;;;;3.38;2.30;;;;;;;28.67;34.76;96601.13;5092519;28;20106;-30
2022/08/12 08:30:41;;;;;;;6.35;2.17;;;;;;;28.84;34.63;96609.84;5092688;28;20040;-29
2022/08/12 08:33:09;;;;;;;3.25;2.00;;;;;;;28.82;34.44;96601.28;5092343;28;20048;-29
2022/08/12 08:35:36;;;;;;;3.00;2.50;;;;;;;28.97;33.86;96609.03;5093667;28;20110;-29
2022/08/12 08:38:13;;;;;;;4.07;1.95;;;;;;;28.75;34.81;96615.13;5093701;28;20032;-29
2022/08/12 08:43:25;;;;;;;4.15;2.00;;;;;;;28.72;34.96;96621.81;5093506;28;20063;-29
2022/08/12 08:45:51;;;;;;;3.75;2.60;;;;;;;28.54;35.62;96620.72;5094294;28;20055;-29
2022/08/12 08:48:17;;;;;;;5.63;2.10;;;;;;;28.77;34.70;96616.09;5093445;28;20032;-29
2022/08/12 08:50:44;;;;;;;2.40;2.20;;;;;;;28.85;34.73;96611.34;5093783;28;20073;-28
2022/08/12 08:53:11;;;;;;;2.80;2.05;;;;;;;28.70;35.04;96611.19;5094231;28;20020;-28
2022/08/12 08:55:36;;;;;;;2.25;2.03;;;;;;;28.89;34.41;96611.78;5094637;28;20048;-28
2022/08/12 08:58:02;;;;;;;4.30;2.45;;;;;;;28.71;34.83;96618.25;5094048;28;20429;-28
2022/08/12 09:00:29;;;;;;;4.95;2.20;;;;;;;28.65;35.03;96609.28;5094051;28;20020;-29
2022/08/12 09:02:54;;;;;;;4.15;2.53;;;;;;;28.78;34.76;96606.47;5093902;28;20024;-28
2022/08/12 09:05:20;;;;;;;3.10;2.25;;;;;;;28.93;34.36;96606.56;5093845;28;20047;-29
2022/08/12 09:07:49;;;;;;;2.67;2.00;;;;;;;28.93;34.43;96606.56;5093910;28;20081;-29
2022/08/12 09:10:19;;;;;;;4.07;2.60;;;;;;;28.94;34.06;96613.66;5093961;28;20024;-29
2022/08/12 09:15:34;;;;;;;3.22;2.20;;;;;;;28.97;34.23;96616.66;5093817;28;20087;-28
2022/08/12 09:18:01;;;;;;;3.40;1.83;;;;;;;28.91;34.33;96623.16;5093712;28;20024;-29
2022/08/12 09:20:32;;;;;;;2.50;2.30;;;;;;;28.71;34.75;96623.84;5094087;28;20522;-29
2022/08/12 09:23:00;;;;;;;3.17;2.30;;;;;;;28.89;34.37;96628.53;5093822;28;20027;-28
2022/08/12 09:25:27;;;;;;;5.72;1.95;;;;;;;28.84;34.47;96621.03;5093829;28;20030;-30
2022/08/12 09:27:53;;;;;;;2.55;2.10;;;;;;;28.88;34.51;96620.69;5093800;28;20024;-29
2022/08/12 09:30:20;;;;;;;3.00;2.00;;;;;;;28.93;34.15;96623.31;5093590;28;20031;-29
2022/08/12 09:32:50;;;;;;;3.17;2.20;;;;;;;28.89;34.44;96622.94;5093671;28;20493;-28
2022/08/12 09:35:22;;;;;;;2.78;2.35;;;;;;;28.94;34.25;96622.03;5093400;28;20020;-29
2022/08/12 09:37:50;;;;;;;2.42;2.10;;;;;;;28.92;34.43;96624.66;5093523;28;20024;-30
2022/08/12 09:40:18;;;;;;;3.33;2.10;;;;;;;28.94;34.23;96632.44;5093403;28;20056;-29
2022/08/12 09:45:30;;;;;;;2.90;2.45;;;;;;;28.86;34.33;96631.66;5094005;28;20054;-29
2022/08/12 09:47:56;;;;;;;3.75;2.15;;;;;;;28.91;34.38;96625.94;5093754;28;20024;-29
2022/08/12 09:50:22;;;;;;;2.55;2.00;;;;;;;28.80;34.72;96631.78;5093238;28;20058;-30
2022/08/12 09:53:04;;;;;;;3.38;2.45;;;;;;;28.85;34.61;96619.72;5093471;28;20051;-28
2022/08/12 09:55:31;;;;;;;4.90;2.30;;;;;;;28.88;34.49;96615.09;5093412;28;20132;-29
2022/08/12 09:57:57;;;;;;;2.03;1.80;;;;;;;28.87;34.63;96605.22;5093499;28;20062;-29
2022/08/12 10:00:24;;;;;;;4.05;2.50;;;;;;;28.93;34.37;96606.56;5093305;28;20522;-28
2022/08/12 10:03:00;;;;;;;2.70;2.20;;;;;;;28.91;34.31;96595.22;5093184;28;20031;-30
2022/08/12 10:05:26;;;;;;;2.88;2.30;;;;;;;28.87;34.37;96592.03;5093082;28;20468;-29
2022/08/12 10:24:39;;;;;;;3.70;2.25;;;;;;;28.85;34.37;96569.47;5092829;28;20078;-29
2022/08/12 10:29:49;;;;;;;3.17;2.25;;;;;;;28.76;34.71;96555.97;5093066;28;20094;-28
2022/08/12 10:32:22;;;;;;;2.45;2.25;;;;;;;28.87;34.39;96561.31;5092480;28;20032;-29
2022/08/12 10:34:49;;;;;;;2.45;2.10;;;;;;;28.82;34.71;96573.34;5091293;28;20031;-28
2022/08/12 10:37:16;;;;;;;2.20;2.00;;;;;;;28.85;34.47;96569.47;5093179;28;20378;-28
2022/08/12 10:39:42;;;;;;;3.38;2.38;;;;;;;28.85;34.53;96574.31;5093034;28;20024;-29
2022/08/12 10:44:59;;;;;;;2.95;2.13;;;;;;;28.85;34.61;96571.53;5093182;28;20500;-29
2022/08/12 10:47:29;;;;;;;2.65;2.17;;;;;;;28.89;34.43;96567.09;5096442;28;20024;-29
2022/08/12 10:49:58;;;;;;;2.63;2.00;;;;;;;28.91;34.40;96561.72;5096646;28;20031;-28
2022/08/12 10:52:29;;;;;;;4.20;2.10;;;;;;;28.71;34.63;96564.47;5095249;28;20023;-29
2022/08/12 10:54:55;;;;;;;2.47;2.05;;;;;;;28.51;34.38;96561.16;5096610;28;20500;-28
2022/08/12 10:57:23;;;;;;;3.58;2.00;;;;;;;28.75;34.24;96556.53;5096417;28;20048;-29
2022/08/12 10:59:49;;;;;;;4.07;1.92;;;;;;;28.81;34.25;96557.16;5096484;28;20016;-29
2022/08/12 11:02:15;;;;;;;2.67;2.17;;;;;;;28.96;33.71;96548.91;5096537;28;20032;-29
2022/08/12 11:04:41;;;;;;;4.55;2.33;;;;;;;28.88;33.51;96537.69;5096211;28;20072;-29
2022/08/12 11:07:08;;;;;;;4.55;2.17;;;;;;;28.90;34.06;96540.69;5096292;28;20056;-28
2022/08/12 11:09:34;;;;;;;4.70;2.20;;;;;;;28.93;34.00;96534.00;5096341;28;20028;-29
2022/08/12 11:12:05;;;;;;;2.83;2.17;;;;;;;29.03;33.44;96536.31;5096051;28;20031;-29
2022/08/12 11:14:37;;;;;;;2.20;2.00;;;;;;;28.99;33.73;96527.53;5096269;28;20032;-29
2022/08/12 11:17:08;;;;;;;2.75;1.92;;;;;;;29.03;33.79;96523.09;5096189;28;20107;-29
2022/08/12 11:19:36;;;;;;;2.67;2.15;;;;;;;29.03;33.59;96525.88;5096117;28;20027;-29
2022/08/12 11:22:03;;;;;;;4.75;2.30;;;;;;;28.90;33.57;96520.41;5095943;28;20031;-29
2022/08/12 11:24:28;;;;;;;2.67;2.13;;;;;;;29.00;33.37;96526.97;5095718;28;20031;-28
2022/08/12 11:26:54;;;;;;;2.47;2.28;;;;;;;28.93;33.82;96534.00;5095331;28;20032;-29
2022/08/12 11:29:22;;;;;;;2.60;1.92;;;;;;;29.01;33.86;96527.72;5114314;27;20654;-29
2022/08/12 11:31:48;;;;;;;2.25;2.03;;;;;;;28.95;33.50;96527.88;5114290;28;20028;-31
2022/08/12 11:34:15;;;;;;;2.60;2.40;;;;;;;29.09;33.21;96522.94;5114237;28;20118;-29
2022/08/12 11:36:55;;;;;;;4.72;2.25;;;;;;;29.07;33.05;96520.69;5114269;28;20034;-29
2022/08/12 11:39:21;;;;;;;2.60;2.40;;;;;;;29.01;32.72;96506.13;5113757;28;20028;-29
2022/08/12 11:41:47;;;;;;;2.45;2.25;;;;;;;29.05;32.95;96511.38;5114132;28;20046;-28
2022/08/12 11:44:14;;;;;;;4.35;2.20;;;;;;;29.07;33.08;96500.38;5112495;28;20089;-29
2022/08/12 11:46:41;;;;;;;2.40;2.20;;;;;;;29.11;32.85;96503.59;5113795;28;20027;-29
2022/08/12 11:49:06;;;;;;;4.55;2.38;;;;;;;29.05;33.00;96503.75;5114097;28;20102;-29
2022/08/12 11:51:33;;;;;;;2.70;2.03;;;;;;;29.11;32.98;96489.63;5113660;28;20098;-29
2022/08/12 11:53:58;;;;;;;3.08;2.15;;;;;;;29.16;32.99;96483.91;5114140;28;20398;-29
2022/08/12 11:56:24;;;;;;;2.85;1.95;;;;;;;29.13;32.82;96475.88;5113631;28;20077;-28
2022/08/12 11:58:49;;;;;;;3.05;2.30;;;;;;;29.18;32.46;96475.69;5113615;28;20110;-29
2022/08/12 12:01:16;;;;;;;3.05;2.20;;;;;;;29.13;32.46;96473.06;5113665;28;20481;-28
2022/08/12 12:03:41;;;;;;;2.42;2.17;;;;;;;29.20;32.24;96472.34;5113398;28;20770;-28
2022/08/12 12:06:07;;;;;;;3.88;2.28;;;;;;;29.04;32.60;96470.78;5113319;28;20051;-28
2022/08/12 12:08:33;;;;;;;3.35;2.60;;;;;;;29.06;32.63;96465.38;5113510;28;20473;-29
2022/08/12 12:10:58;;;;;;;3.33;2.25;;;;;;;29.13;32.42;96461.91;5113480;28;20023;-29
2022/08/12 12:13:24;;;;;;;2.90;2.55;;;;;;;29.13;32.66;96467.50;5111882;28;20470;-28
2022/08/12 12:15:50;;;;;;;3.47;2.47;;;;;;;29.17;32.18;96462.31;5113273;28;20377;-29
2022/08/12 12:18:29;;;;;;;2.63;2.42;;;;;;;29.18;32.16;96460.97;5113448;28;20098;-29
2022/08/12 12:21:03;;;;;;;3.75;2.40;;;;;;;29.18;32.05;96449.81;5113299;28;20644;-29
2022/08/12 12:23:29;;;;;;;2.47;2.28;;;;;;;29.18;31.68;96453.34;5113244;28;20035;-29
2022/08/12 12:25:55;;;;;;;2.60;2.40;;;;;;;29.20;31.60;96456.34;5113230;28;20423;-28
2022/08/12 12:28:20;;;;;;;2.40;2.20;;;;;;;29.21;32.01;96457.09;5112987;28;20102;-29
2022/08/12 12:30:46;;;;;;;3.33;2.30;;;;;;;29.20;31.62;96456.34;5113073;28;20111;-29
2022/08/12 12:33:12;;;;;;;2.38;2.17;;;;;;;29.23;32.01;96457.28;5113037;28;20051;-29
2022/08/12 12:35:38;;;;;;;2.40;2.20;;;;;;;29.20;31.80;96461.19;5112943;28;20059;-29
2022/08/12 12:38:06;;;;;;;2.40;2.20;;;;;;;29.24;31.66;96456.00;5112929;28;20104;-29
2022/08/12 12:40:33;;;;;;;2.60;2.35;;;;;;;29.17;31.95;96451.13;5111304;28;20035;-29
2022/08/12 12:42:59;;;;;;;2.65;2.08;;;;;;;29.22;31.83;96459.34;5112825;28;20028;-29
2022/08/12 12:45:26;;;;;;;2.38;2.17;;;;;;;29.20;31.93;96455.59;5112898;28;20045;-30
2022/08/12 12:47:59;;;;;;;3.20;2.70;;;;;;;29.13;31.69;96456.31;5112786;28;20031;-29
2022/08/12 12:50:26;;;;;;;2.83;2.50;;;;;;;29.15;31.69;96457.28;5111418;28;20083;-29
2022/08/12 12:52:52;;;;;;;3.42;2.53;;;;;;;29.13;31.64;96448.69;5112435;28;20023;-30
2022/08/12 12:55:20;;;;;;;3.22;2.22;;;;;;;29.18;31.95;96458.19;5112612;27;20714;-29
2022/08/12 12:57:45;;;;;;;2.40;2.00;;;;;;;29.09;31.35;96450.34;5112472;28;20066;-29
2022/08/12 13:00:15;;;;;;;2.50;2.30;;;;;;;29.06;31.23;96454.22;5112486;28;20063;-29
2022/08/12 13:02:51;;;;;;;2.95;2.20;;;;;;;29.06;30.71;96448.63;5112119;28;20416;-29
2022/08/12 13:05:35;;;;;;;2.95;2.17;;;;;;;29.09;31.07;96450.34;5112152;28;20042;-29
2022/08/12 13:08:16;;;;;;;2.47;1.95;;;;;;;29.19;31.03;96448.50;5112076;28;20092;-29
2022/08/12 13:10:42;;;;;;;2.65;2.25;;;;;;;29.20;30.99;96444.44;5111638;28;20027;-30
2022/08/12 13:13:07;;;;;;;2.97;2.15;;;;;;;29.14;31.17;96447.41;5110409;28;20015;-29
2022/08/12 13:15:33;;;;;;;2.45;2.25;;;;;;;29.22;31.02;96444.63;5111133;28;20028;-29
2022/08/12 13:18:03;;;;;;;2.42;2.17;;;;;;;29.20;31.10;96447.97;5112208;28;20372;-29
2022/08/12 13:20:30;;;;;;;2.50;2.30;;;;;;;29.21;30.89;96432.72;5112252;28;20366;-29
2022/08/12 13:22:56;;;;;;;2.92;2.33;;;;;;;29.24;30.68;96442.03;5112041;28;20030;-29
2022/08/12 13:25:23;;;;;;;2.95;2.15;;;;;;;29.25;30.81;96440.75;5112549;28;20469;-29
2022/08/12 13:27:48;;;;;;;3.45;2.38;;;;;;;29.24;30.81;96450.41;5111760;28;20027;-29
2022/08/12 13:30:17;;;;;;;2.55;1.90;;;;;;;29.12;31.01;96446.44;5111839;28;20031;-28
2022/08/12 13:32:49;;;;;;;2.78;2.30;;;;;;;29.04;31.12;96448.47;5112223;28;20026;-28
2022/08/12 13:35:15;;;;;;;3.38;2.25;;;;;;;29.22;31.04;96437.00;5112233;28;20474;-29
2022/08/12 13:37:52;;;;;;;2.33;2.00;;;;;;;29.19;30.90;96438.09;5112013;28;20485;-28
2022/08/12 13:40:29;;;;;;;2.50;2.25;;;;;;;29.19;31.02;96432.50;5109849;28;20016;-30
2022/08/12 13:43:00;;;;;;;2.60;2.40;;;;;;;29.06;31.35;96435.41;5095637;28;20028;-29
2022/08/12 13:45:28;;;;;;;2.65;2.20;;;;;;;29.15;31.13;96436.97;5090159;28;20381;-28